Time;durP1;ratioP1;P1;durP2;ratioP2;P2;SDS_P1;SDS_P2;PMS_P1;PMS_P2;Temp;Humidity;BMP_temperature;BMP_pressure;BME280_temperature;BME280_humidity;BME280_pressure;Samples;Min_cycle;Max_cycle;Signal;HPM_P1;HPM_P2
2021/05/28 00:02:20;;;;;;;0.30;0.28;;;;;;;13.26;47.73;100955.03;6289748;22;20042;-83
2021/05/28 00:04:56;;;;;;;0.10;0.10;;;;;;;13.08;47.58;100926.13;6289453;22;20105;-82
2021/05/28 00:07:31;;;;;;;0.30;0.30;;;;;;;13.20;47.96;100945.97;6317014;22;19999;-83
2021/05/28 00:09:58;;;;;;;0.40;0.28;;;;;;;13.05;48.16;100933.03;6290283;22;20014;-84
2021/05/28 00:12:34;;;;;;;;;;;;;;;;;;;;;
2021/05/28 00:15:01;;;;;;;0.38;0.20;;;;;;;13.00;47.88;100934.91;6291235;22;20031;-75
2021/05/28 00:17:26;;;;;;;0.20;0.20;;;;;;;13.09;48.22;100953.31;6287384;22;20030;-79
2021/05/28 00:19:55;;;;;;;0.43;0.30;;;;;;;13.00;48.15;100940.41;6321976;22;19995;-78
2021/05/28 00:22:56;;;;;;;0.20;0.20;;;;;;;13.12;47.94;100959.38;6288778;22;20448;-76
2021/05/28 00:25:24;;;;;;;0.10;0.10;;;;;;;13.16;47.92;100969.56;6262400;22;20007;-77
2021/05/28 00:27:50;;;;;;;0.20;0.10;;;;;;;13.01;48.58;100940.13;6310977;22;20006;-78
2021/05/28 00:30:15;;;;;;;0.10;0.10;;;;;;;13.09;48.16;100960.75;6277426;22;19999;-77
2021/05/28 00:32:41;;;;;;;0.08;0.08;;;;;;;13.17;48.77;100973.13;6310278;22;20402;-76
2021/05/28 00:35:07;;;;;;;0.13;0.10;;;;;;;13.18;48.29;100974.78;6307252;22;20007;-76
2021/05/28 00:37:40;;;;;;;0.10;0.10;;;;;;;13.09;48.43;100966.25;6281668;22;19999;-77
2021/05/28 00:40:28;;;;;;;0.45;0.45;;;;;;;13.10;48.97;100968.72;6279668;22;20010;-74
2021/05/28 00:42:54;;;;;;;0.57;0.57;;;;;;;12.87;49.25;100947.22;6306938;22;20074;-76
2021/05/28 00:45:19;;;;;;;0.60;0.60;;;;;;;13.02;49.32;100985.69;6280881;22;20014;-78
2021/05/28 00:47:45;;;;;;;0.70;0.60;;;;;;;12.87;49.75;100980.16;6306121;22;20003;-77
2021/05/28 00:50:41;;;;;;;;;;;;;;;;;;;;;
2021/05/28 00:53:07;;;;;;;0.60;0.50;;;;;;;12.79;49.50;100983.41;6312382;22;20235;-77
2021/05/28 00:55:38;;;;;;;0.32;0.20;;;;;;;12.81;49.51;100997.69;6288366;22;20414;-75
2021/05/28 00:58:07;;;;;;;0.30;0.30;;;;;;;12.82;49.66;100999.34;6281824;22;20442;-75
2021/05/28 01:00:36;;;;;;;0.30;0.30;;;;;;;12.79;49.91;100999.88;6283779;22;20416;-76
2021/05/28 01:03:02;;;;;;;0.40;0.40;;;;;;;12.61;50.42;100966.31;6316509;22;20000;-75
2021/05/28 01:05:38;;;;;;;0.52;0.52;;;;;;;12.75;50.28;100992.16;6293162;22;20101;-78
2021/05/28 01:08:13;;;;;;;0.82;0.80;;;;;;;12.77;51.19;101002.06;6319677;22;20322;-76
2021/05/28 01:10:41;;;;;;;1.60;1.25;;;;;;;12.52;51.79;100979.69;6290877;22;20021;-74
2021/05/28 01:13:16;;;;;;;2.03;0.95;;;;;;;12.53;51.12;100997.81;6313727;22;20403;-74
2021/05/28 01:15:42;;;;;;;0.77;0.77;;;;;;;12.48;51.74;100999.69;6306861;22;20406;-75
2021/05/28 01:18:16;;;;;;;7.53;1.02;;;;;;;12.34;52.20;100983.72;6303942;22;20053;-75
2021/05/28 01:20:54;;;;;;;;;;;;;;;;;;;;;
2021/05/28 01:23:22;;;;;;;0.30;0.30;;;;;;;12.45;51.87;101001.06;6302844;22;21149;-75
2021/05/28 01:25:48;;;;;;;0.65;0.40;;;;;;;12.23;51.82;100976.50;6310363;22;20090;-76
2021/05/28 01:28:16;;;;;;;0.30;0.30;;;;;;;12.26;51.79;100964.19;6279847;22;19995;-75
2021/05/28 01:30:42;;;;;;;0.30;0.20;;;;;;;12.47;51.76;100998.03;6307162;22;20007;-74
2021/05/28 01:33:10;;;;;;;0.20;0.20;;;;;;;12.47;51.92;101009.84;6286451;22;20418;-74
2021/05/28 01:35:36;;;;;;;0.25;0.25;;;;;;;12.48;51.88;101002.44;6284156;22;20726;-74
2021/05/28 01:38:04;;;;;;;0.30;0.30;;;;;;;12.42;51.78;100995.28;6279727;22;20010;-72
2021/05/28 01:40:30;;;;;;;0.20;0.20;;;;;;;12.43;51.22;100991.47;6286070;22;20007;-73
2021/05/28 01:42:55;;;;;;;0.30;0.15;;;;;;;12.43;51.44;100992.28;6278482;22;20064;-72
2021/05/28 01:45:21;;;;;;;0.43;0.32;;;;;;;12.40;51.34;100987.31;6279024;22;20011;-75
2021/05/28 01:47:55;;;;;;;0.93;0.60;;;;;;;12.46;51.87;100996.41;6258056;22;20022;-75
2021/05/28 01:50:21;;;;;;;0.82;0.82;;;;;;;12.37;52.47;101002.38;6277866;22;20010;-75
2021/05/28 01:52:46;;;;;;;3.78;1.17;;;;;;;12.29;53.56;100997.38;6309724;22;20000;-74
2021/05/28 01:55:14;;;;;;;1.75;0.82;;;;;;;12.26;53.01;101000.66;6282301;22;20007;-75
2021/05/28 01:57:40;;;;;;;1.45;0.70;;;;;;;12.22;53.06;101000.34;6284374;22;20371;-76
2021/05/28 02:00:16;;;;;;;2.38;0.70;;;;;;;12.10;52.82;100988.75;6285724;22;20082;-77
2021/05/28 02:02:42;;;;;;;0.70;0.70;;;;;;;12.11;53.42;101006.03;6285660;22;20019;-76
2021/05/28 02:05:08;;;;;;;0.75;0.60;;;;;;;12.09;54.00;101013.69;6287024;22;20379;-76
2021/05/28 02:07:37;;;;;;;1.45;0.80;;;;;;;11.94;54.71;101006.97;6286154;22;20090;-76
2021/05/28 02:10:09;;;;;;;1.60;1.15;;;;;;;11.93;55.03;101015.44;6312941;22;20067;-77
2021/05/28 02:12:42;;;;;;;2.15;1.10;;;;;;;11.62;55.12;100979.53;6282933;22;20003;-76
2021/05/28 02:15:08;;;;;;;1.23;1.13;;;;;;;11.77;55.24;101011.72;6312970;22;20339;-79
2021/05/28 02:17:34;;;;;;;1.95;0.85;;;;;;;11.64;55.77;101008.31;6290672;22;20011;-80
2021/05/28 02:19:59;;;;;;;1.45;0.57;;;;;;;11.56;55.66;101000.56;6289869;22;20366;-79
2021/05/28 02:22:27;;;;;;;0.50;0.50;;;;;;;11.60;55.31;101001.72;6289514;22;20014;-80
2021/05/28 02:24:55;;;;;;;0.47;0.47;;;;;;;11.57;55.09;100983.06;6286073;22;20004;-80
2021/05/28 02:27:24;;;;;;;0.50;0.50;;;;;;;11.66;55.24;100991.63;6263372;22;20481;-79
2021/05/28 02:29:49;;;;;;;0.35;0.30;;;;;;;11.76;54.71;100996.38;6286042;22;20009;-78
2021/05/28 02:32:14;;;;;;;0.20;0.20;;;;;;;11.84;54.79;101002.22;6262747;22;20070;-78
2021/05/28 02:34:40;;;;;;;0.10;0.10;;;;;;;11.88;54.60;100997.03;6266682;22;20003;-79
2021/05/28 02:37:06;;;;;;;0.20;0.20;;;;;;;12.02;54.80;101017.47;6302147;22;20007;-79
2021/05/28 02:39:39;;;;;;;0.20;0.10;;;;;;;12.04;54.56;101007.06;6271974;22;20014;-79
2021/05/28 02:42:08;;;;;;;0.10;0.10;;;;;;;12.09;54.44;101002.72;6263801;22;20067;-79
2021/05/28 02:44:35;;;;;;;0.10;0.10;;;;;;;12.02;54.40;100998.28;6266182;22;19999;-78
2021/05/28 02:47:01;;;;;;;0.10;0.10;;;;;;;11.99;53.93;100987.84;6289321;22;20053;-79
2021/05/28 02:49:36;;;;;;;0.20;0.20;;;;;;;12.09;54.17;100991.75;6270297;22;20003;-82
2021/05/28 02:52:05;;;;;;;0.10;0.10;;;;;;;12.11;54.21;100995.88;6309911;22;20041;-82
2021/05/28 02:54:41;;;;;;;0.10;0.10;;;;;;;11.97;54.31;100970.84;6309274;22;20252;-82
2021/05/28 02:57:08;;;;;;;0.00;0.00;;;;;;;11.90;54.16;100955.66;6285396;22;20009;-81
2021/05/28 02:59:33;;;;;;;0.10;0.10;;;;;;;12.13;54.29;100992.88;6305241;22;20265;-80
2021/05/28 03:02:06;;;;;;;0.10;0.10;;;;;;;12.13;54.22;101003.84;6307239;22;20003;-80
2021/05/28 03:04:45;;;;;;;;;;;;;;;;;;;;;
2021/05/28 03:07:16;;;;;;;0.10;0.10;;;;;;;12.11;54.30;101006.84;6320568;22;20033;-82
2021/05/28 03:09:41;;;;;;;0.10;0.10;;;;;;;11.88;54.19;100975.09;6278966;22;20045;-72
2021/05/28 03:12:07;;;;;;;0.20;0.10;;;;;;;11.94;54.07;100986.97;6307514;22;20046;-74
2021/05/28 03:14:33;;;;;;;0.00;0.00;;;;;;;11.91;54.40;100991.03;6254675;22;20006;-75
2021/05/28 03:16:58;;;;;;;0.10;0.10;;;;;;;11.85;54.75;100992.06;6267619;22;20014;-77
2021/05/28 03:19:29;;;;;;;0.10;0.10;;;;;;;11.99;54.87;101011.69;6260550;22;20425;-77
2021/05/28 03:24:39;;;;;;;0.20;0.10;;;;;;;11.92;55.01;101009.13;6313239;22;20014;-76
2021/05/28 03:27:05;;;;;;;0.63;0.20;;;;;;;11.98;54.68;101027.28;6312506;22;20082;-79
2021/05/28 03:29:39;;;;;;;0.25;0.20;;;;;;;11.91;55.17;101015.69;6283935;22;20440;-76
2021/05/28 03:32:05;;;;;;;0.70;0.47;;;;;;;11.90;54.90;101010.47;6261909;22;20106;-77
2021/05/28 03:34:31;;;;;;;0.20;0.20;;;;;;;11.98;55.30;101018.25;6260051;22;20232;-78
2021/05/28 03:36:58;;;;;;;0.15;0.15;;;;;;;12.12;54.98;101026.84;6257782;22;20014;-78
2021/05/28 03:39:29;;;;;;;0.28;0.28;;;;;;;12.07;54.62;101016.69;6284866;22;20010;-78
2021/05/28 03:41:55;;;;;;;0.10;0.10;;;;;;;12.07;55.16;101021.34;6281369;22;20003;-78
2021/05/28 03:44:20;;;;;;;0.20;0.20;;;;;;;12.16;54.53;101036.22;6312131;22;20303;-77
2021/05/28 03:46:46;;;;;;;0.10;0.10;;;;;;;12.21;55.13;101036.28;6311801;22;20120;-76
2021/05/28 03:49:14;;;;;;;0.10;0.10;;;;;;;12.17;54.65;101027.72;6312753;22;20461;-82
2021/05/28 03:51:40;;;;;;;0.10;0.10;;;;;;;12.14;54.48;101027.44;6287048;22;20007;-82
2021/05/28 03:54:05;;;;;;;0.13;0.10;;;;;;;12.24;54.99;101043.97;6316971;22;20047;-81
2021/05/28 03:56:33;;;;;;;0.00;0.00;;;;;;;12.17;54.77;101024.16;6263045;22;20012;-81
2021/05/28 03:59:01;;;;;;;0.10;0.10;;;;;;;12.26;54.98;101028.06;6289722;22;20006;-81
2021/05/28 04:01:27;;;;;;;0.05;0.00;;;;;;;12.27;54.75;101042.63;6286436;22;20018;-80
2021/05/28 04:04:05;;;;;;;;;;;;;;;;;;;;;
2021/05/28 04:06:31;;;;;;;0.15;0.10;;;;;;;12.33;54.96;101036.09;6290922;22;20030;-80
2021/05/28 04:09:03;;;;;;;0.00;0.00;;;;;;;12.26;54.28;101014.34;6264709;22;19999;-79
2021/05/28 04:11:29;;;;;;;0.10;0.03;;;;;;;12.26;54.56;101011.63;6282232;22;20078;-80
2021/05/28 04:13:54;;;;;;;0.13;0.10;;;;;;;12.34;54.76;101035.81;6289798;22;19999;-80
2021/05/28 04:16:19;;;;;;;0.10;0.10;;;;;;;12.30;54.85;101020.97;6285687;22;20007;-79
2021/05/28 04:18:45;;;;;;;0.10;0.10;;;;;;;12.42;54.38;101017.22;6283599;22;20434;-79
2021/05/28 04:21:13;;;;;;;0.10;0.10;;;;;;;12.58;54.31;101032.69;6286140;22;20326;-79
2021/05/28 04:23:38;;;;;;;0.00;0.00;;;;;;;12.66;54.20;101034.94;6283580;22;19999;-79
2021/05/28 04:26:04;;;;;;;0.10;0.03;;;;;;;12.63;54.36;101035.47;6256234;22;20011;-78
2021/05/28 04:28:30;;;;;;;0.20;0.20;;;;;;;12.50;54.25;101019.44;6317439;22;19996;-80
2021/05/28 04:30:56;;;;;;;0.20;0.20;;;;;;;12.38;54.49;101020.50;6287311;22;20048;-80
2021/05/28 04:33:28;;;;;;;0.00;0.00;;;;;;;12.27;54.01;101005.06;6291347;22;20070;-80
2021/05/28 04:35:53;;;;;;;0.10;0.10;;;;;;;12.42;54.29;101022.72;6290010;22;20018;-77
2021/05/28 04:38:19;;;;;;;0.20;0.05;;;;;;;12.52;54.28;101042.78;6297544;22;20003;-78
2021/05/28 04:40:44;;;;;;;0.10;0.10;;;;;;;12.42;53.90;101022.72;6301852;22;20004;-81
2021/05/28 04:43:10;;;;;;;0.00;0.00;;;;;;;12.48;54.25;101029.88;6273474;22;20016;-80
2021/05/28 04:45:37;;;;;;;0.00;0.00;;;;;;;12.57;54.31;101039.25;6289842;22;20007;-80
2021/05/28 04:48:03;;;;;;;0.20;0.10;;;;;;;12.54;54.58;101037.88;6262440;22;20004;-79
2021/05/28 04:50:31;;;;;;;0.17;0.10;;;;;;;12.55;54.38;101030.47;6290426;22;20367;-79
2021/05/28 04:53:01;;;;;;;0.10;0.10;;;;;;;12.73;53.81;101057.50;6289298;22;20056;-79
2021/05/28 04:55:28;;;;;;;0.10;0.10;;;;;;;12.66;53.96;101040.44;6287947;22;20029;-79
2021/05/28 04:57:54;;;;;;;0.10;0.10;;;;;;;12.68;54.61;101043.72;6282000;22;20027;-79
2021/05/28 05:00:23;;;;;;;0.40;0.10;;;;;;;12.82;54.16;101065.19;6287966;22;20065;-81
2021/05/28 05:02:50;;;;;;;0.08;0.05;;;;;;;12.89;54.20;101071.28;6287984;22;20004;-79
2021/05/28 05:05:27;;;;;;;0.10;0.10;;;;;;;12.85;54.36;101053.69;6290575;22;20095;-80
2021/05/28 05:07:55;;;;;;;0.10;0.10;;;;;;;12.83;53.99;101047.66;6288925;22;20007;-81
2021/05/28 05:10:23;;;;;;;0.10;0.10;;;;;;;12.94;54.45;101052.09;6317073;22;20007;-80
2021/05/28 05:13:50;;;;;;;0.00;0.00;;;;;;;12.97;53.61;101037.84;6286573;22;20537;-80
2021/05/28 05:16:18;;;;;;;0.10;0.10;;;;;;;13.17;53.61;101055.50;6250809;22;20043;-76
2021/05/28 05:18:55;;;;;;;0.08;0.08;;;;;;;13.21;53.64;101051.13;6284281;22;20003;-77
2021/05/28 05:21:21;;;;;;;0.28;0.10;;;;;;;13.36;53.77;101080.59;6260070;22;20023;-76
2021/05/28 05:23:56;;;;;;;0.10;0.10;;;;;;;13.34;54.06;101072.63;6275801;22;20007;-75
2021/05/28 05:26:21;;;;;;;3.33;0.10;;;;;;;13.32;52.97;101063.00;6287548;22;20027;-76
2021/05/28 05:28:47;;;;;;;0.13;0.13;;;;;;;13.21;53.33;101037.41;6294718;22;19999;-75
2021/05/28 05:31:18;;;;;;;0.13;0.13;;;;;;;13.39;53.80;101053.44;6297899;22;20070;-74
2021/05/28 05:33:44;;;;;;;0.25;0.22;;;;;;;13.44;53.35;101060.84;6321950;22;20062;-75
2021/05/28 05:36:09;;;;;;;0.30;0.30;;;;;;;13.58;53.24;101083.16;6296430;22;19995;-74
2021/05/28 05:38:35;;;;;;;0.30;0.30;;;;;;;13.60;53.87;101061.72;6322107;22;20050;-77
2021/05/28 05:41:05;;;;;;;0.10;0.10;;;;;;;13.78;53.53;101055.75;6295802;22;20003;-76
2021/05/28 05:43:32;;;;;;;0.20;0.10;;;;;;;13.95;53.01;101043.66;6256596;22;20447;-76
2021/05/28 05:45:58;;;;;;;0.10;0.10;;;;;;;14.13;52.97;101056.88;6284376;22;20003;-77
2021/05/28 05:48:26;;;;;;;0.20;0.17;;;;;;;14.31;52.92;101051.94;6256486;22;20014;-76
2021/05/28 05:50:56;;;;;;;0.20;0.20;;;;;;;14.47;52.48;101056.31;6258397;22;20045;-75
2021/05/28 05:53:22;;;;;;;0.10;0.10;;;;;;;14.58;52.71;101059.84;6311721;22;20041;-75
2021/05/28 05:55:52;;;;;;;0.20;0.20;;;;;;;14.62;52.30;101046.41;6283396;22;20006;-76
2021/05/28 05:58:17;;;;;;;0.25;0.25;;;;;;;14.78;51.97;101064.53;6284221;22;20076;-75
2021/05/28 06:00:43;;;;;;;0.10;0.10;;;;;;;14.82;51.85;101068.38;6312386;22;20474;-77
2021/05/28 06:03:08;;;;;;;0.10;0.10;;;;;;;14.79;52.15;101052.44;6286517;22;20011;-78
2021/05/28 06:05:34;;;;;;;0.20;0.20;;;;;;;14.87;51.90;101052.97;6262964;22;20011;-76
2021/05/28 06:07:59;;;;;;;0.20;0.20;;;;;;;15.07;51.97;101080.44;6315578;22;20003;-76
2021/05/28 06:10:41;;;;;;;0.40;0.40;;;;;;;15.11;52.01;101078.78;6262627;22;20301;-78
2021/05/28 06:13:12;;;;;;;0.32;0.32;;;;;;;15.09;51.62;101067.19;6289974;22;19999;-78
2021/05/28 06:15:37;;;;;;;0.20;0.20;;;;;;;15.16;51.97;101061.41;6311604;22;20007;-76
2021/05/28 06:18:03;;;;;;;0.30;0.30;;;;;;;15.28;51.88;101050.06;6313233;22;20006;-77
2021/05/28 06:20:29;;;;;;;0.30;0.20;;;;;;;15.54;52.15;101073.63;6260510;22;20434;-76
2021/05/28 06:22:56;;;;;;;0.17;0.17;;;;;;;15.68;51.70;101070.22;6312624;22;19996;-76
2021/05/28 06:25:22;;;;;;;0.60;0.50;;;;;;;15.82;51.91;101060.25;6308208;22;20053;-74
2021/05/28 06:27:47;;;;;;;0.20;0.20;;;;;;;16.06;51.28;101070.56;6285305;22;20426;-77
2021/05/28 06:30:14;;;;;;;0.20;0.20;;;;;;;16.23;51.40;101062.69;6289289;22;20007;-77
2021/05/28 06:32:45;;;;;;;0.35;0.35;;;;;;;16.39;51.07;101062.56;6285205;22;19999;-78
2021/05/28 06:35:11;;;;;;;0.20;0.20;;;;;;;16.63;51.18;101075.59;6285589;22;20064;-77
2021/05/28 06:37:37;;;;;;;0.50;0.50;;;;;;;16.73;50.91;101075.50;6277237;22;20058;-75
2021/05/28 06:40:05;;;;;;;1.25;1.15;;;;;;;16.76;50.94;101069.41;6311888;22;20010;-77
2021/05/28 06:42:30;;;;;;;0.50;0.50;;;;;;;16.69;50.27;101068.91;6312866;22;19999;-74
2021/05/28 06:44:56;;;;;;;0.30;0.30;;;;;;;16.78;50.70;101066.34;6286071;22;20022;-78
2021/05/28 06:47:31;;;;;;;0.45;0.45;;;;;;;16.86;50.90;101063.75;6256751;22;20337;-75
2021/05/28 06:49:56;;;;;;;0.40;0.40;;;;;;;16.91;50.81;101062.94;6313061;22;20002;-75
2021/05/28 06:53:00;;;;;;;;;;;;;;;;;;;;;
2021/05/28 06:55:26;;;;;;;0.40;0.40;;;;;;;17.10;50.75;101058.28;6295706;22;20038;-79
2021/05/28 06:57:52;;;;;;;0.38;0.38;;;;;;;17.16;50.41;101050.75;6288024;22;20019;-76
2021/05/28 07:00:18;;;;;;;0.30;0.30;;;;;;;17.39;50.62;101056.53;6258262;22;20094;-77
2021/05/28 07:02:44;;;;;;;2.72;1.00;;;;;;;17.55;50.52;101062.69;6314314;22;20421;-78
2021/05/28 07:05:10;;;;;;;0.63;0.63;;;;;;;17.66;50.21;101052.31;6311861;22;20011;-77
2021/05/28 07:07:46;;;;;;;0.52;0.52;;;;;;;17.76;50.70;101064.03;6284735;22;20057;-78
2021/05/28 07:10:19;;;;;;;1.48;1.38;;;;;;;17.77;50.26;101054.63;6260302;22;20005;-77
2021/05/28 07:12:44;;;;;;;1.10;1.10;;;;;;;17.83;49.96;101058.16;6285654;22;19999;-77
2021/05/28 07:15:26;;;;;;;;;;;;;;;;;;;;;
2021/05/28 07:17:55;;;;;;;0.82;0.82;;;;;;;17.95;50.55;101044.69;6312442;22;20038;-76
2021/05/28 07:20:30;;;;;;;0.90;0.90;;;;;;;18.20;50.27;101073.09;6285072;22;20072;-79
2021/05/28 07:22:58;;;;;;;0.98;0.90;;;;;;;18.22;49.99;101059.75;6285381;22;20031;-80
2021/05/28 07:25:24;;;;;;;1.17;1.17;;;;;;;18.40;50.01;101074.69;6310061;22;20003;-78
2021/05/28 07:27:52;;;;;;;1.92;1.83;;;;;;;18.50;49.91;101073.72;6258659;22;20011;-78
2021/05/28 07:30:18;;;;;;;2.58;1.42;;;;;;;18.45;50.04;101046.91;6285514;22;20007;-79
2021/05/28 07:32:47;;;;;;;1.10;1.10;;;;;;;18.61;49.81;101060.50;6312218;22;20002;-76
2021/05/28 07:35:18;;;;;;;1.27;1.27;;;;;;;18.70;50.04;101066.16;6284321;22;20390;-77
2021/05/28 07:37:46;;;;;;;1.27;1.27;;;;;;;18.75;49.81;101049.41;6286825;22;20003;-77
2021/05/28 07:40:14;;;;;;;2.75;2.55;;;;;;;19.02;50.25;101068.84;6312152;22;20007;-76
2021/05/28 07:42:40;;;;;;;1.48;1.40;;;;;;;19.12;49.65;101070.59;6286605;22;20103;-77
2021/05/28 07:45:08;;;;;;;1.23;1.20;;;;;;;19.29;50.18;101074.69;6259552;22;20011;-78
2021/05/28 07:47:34;;;;;;;2.50;2.30;;;;;;;19.35;49.59;101057.66;6291064;22;19999;-83
2021/05/28 07:50:03;;;;;;;3.45;3.25;;;;;;;19.54;48.69;101071.41;6291117;22;20008;-80
2021/05/28 07:52:44;;;;;;;4.28;4.07;;;;;;;19.52;49.23;101061.72;6298289;22;19999;-80
2021/05/28 07:55:11;;;;;;;3.75;3.53;;;;;;;19.74;48.61;101080.38;6302359;22;20007;-79
2021/05/28 07:57:44;;;;;;;2.42;2.33;;;;;;;19.81;48.76;101057.78;6266916;22;20027;-76
2021/05/28 08:00:11;;;;;;;2.00;1.90;;;;;;;20.12;48.18;101068.16;6287790;22;20007;-80
2021/05/28 08:02:46;;;;;;;1.90;1.80;;;;;;;20.29;48.07;101071.06;6288913;22;20022;-79
2021/05/28 08:05:15;;;;;;;2.17;2.08;;;;;;;20.54;48.16;101069.56;6288115;22;20007;-77
2021/05/28 08:07:50;;;;;;;3.28;3.08;;;;;;;20.76;47.67;101067.94;6286694;22;20440;-82
2021/05/28 08:10:15;;;;;;;5.22;2.08;;;;;;;20.92;46.94;101057.22;6293402;22;20010;-83
2021/05/28 08:12:46;;;;;;;2.80;2.70;;;;;;;21.08;47.09;101077.91;6267926;22;20067;-79
2021/05/28 08:15:17;;;;;;;3.70;3.50;;;;;;;21.06;46.36;101057.13;6293049;22;20050;-81
2021/05/28 08:17:44;;;;;;;2.70;2.50;;;;;;;21.18;46.19;101064.84;6296186;22;20068;-83
2021/05/28 08:20:21;;;;;;;3.17;2.97;;;;;;;21.28;46.30;101058.97;6299803;22;19997;-81
2021/05/28 08:22:58;;;;;;;2.78;2.67;;;;;;;21.45;45.84;101063.78;6272779;22;20011;-80
2021/05/28 08:25:29;;;;;;;3.03;2.83;;;;;;;21.58;45.58;101067.56;6320981;22;20010;-84
2021/05/28 08:27:55;;;;;;;2.95;2.72;;;;;;;21.62;45.18;101063.00;6298722;22;19999;-80
2021/05/28 08:30:21;;;;;;;3.30;3.10;;;;;;;21.73;44.87;101080.22;6322158;22;20003;-80
2021/05/28 08:32:49;;;;;;;2.33;2.22;;;;;;;21.55;44.69;101071.00;6292201;22;19999;-81
2021/05/28 08:35:15;;;;;;;2.70;2.60;;;;;;;21.59;45.03;101081.16;6317683;22;20006;-80
2021/05/28 08:37:44;;;;;;;5.07;2.78;;;;;;;21.52;44.74;101066.91;6265256;22;20014;-79
2021/05/28 08:40:10;;;;;;;2.60;2.47;;;;;;;21.59;44.83;101074.78;6262864;22;20066;-82
2021/05/28 08:42:36;;;;;;;2.00;1.90;;;;;;;21.59;44.83;101066.44;6291752;22;20009;-84
2021/05/28 08:45:10;;;;;;;2.50;2.30;;;;;;;21.78;44.77;101071.69;6287912;22;20414;-76
2021/05/28 08:47:49;;;;;;;3.30;3.03;;;;;;;21.81;44.46;101062.66;6291399;22;20058;-83
2021/05/28 08:50:18;;;;;;;1.42;1.42;;;;;;;22.04;44.40;101074.47;6295438;22;20013;-84
2021/05/28 08:52:44;;;;;;;2.17;2.08;;;;;;;22.18;44.36;101051.19;6294328;22;20002;-82
2021/05/28 08:55:09;;;;;;;2.50;2.40;;;;;;;22.58;44.18;101064.91;6298607;22;19999;-82
2021/05/28 08:57:35;;;;;;;3.72;2.88;;;;;;;22.82;43.54;101053.19;6320073;22;20334;-83
2021/05/28 09:00:01;;;;;;;4.72;2.88;;;;;;;23.20;42.93;101051.56;6290938;22;20053;-81
2021/05/28 09:02:31;;;;;;;1.38;1.27;;;;;;;23.64;42.90;101052.91;6287961;22;20330;-83
2021/05/28 09:05:09;;;;;;;2.08;1.98;;;;;;;24.08;42.57;101065.72;6294542;22;20010;-83
2021/05/28 09:08:02;;;;;;;;;;;;;;;;;;;;;
2021/05/28 09:10:39;;;;;;;3.72;2.40;;;;;;;24.71;41.14;101040.44;6323555;22;20003;-82
2021/05/28 09:13:38;;;;;;;1.90;1.80;;;;;;;25.04;39.91;101064.69;6295587;22;20026;-83
2021/05/28 09:16:17;;;;;;;1.02;1.02;;;;;;;25.09;39.90;101045.69;6325169;22;20279;-82
2021/05/28 09:18:52;;;;;;;1.30;1.20;;;;;;;25.31;39.34;101057.59;6301627;22;19994;-82
2021/05/28 09:21:35;;;;;;;;;;;;;;;25.72;38.81;101072.47;6302723;22;20006;-84
2021/05/28 09:24:35;;;;;;;1.50;1.40;;;;;;;25.52;38.33;101059.44;6292947;22;19910;-82
2021/05/28 09:27:36;;;;;;;;;;;;;;;;;;;;;
2021/05/28 09:30:11;;;;;;;2.40;2.22;;;;;;;25.31;37.54;101052.00;6321665;22;20015;-80
2021/05/28 09:32:42;;;;;;;1.23;0.93;;;;;;;25.39;38.67;101064.22;6320445;22;20003;-82
2021/05/28 09:35:21;;;;;;;1.73;1.63;;;;;;;25.39;37.97;101064.22;6301466;22;20078;-81
2021/05/28 09:38:01;;;;;;;3.42;1.60;;;;;;;25.33;37.70;101058.06;6301991;22;20006;-82
2021/05/28 09:40:34;;;;;;;1.40;1.38;;;;;;;25.16;38.39;101067.50;6300002;22;20029;-81
2021/05/28 09:43:11;;;;;;;2.97;2.78;;;;;;;24.66;37.30;101049.03;6299184;22;20018;-81
2021/05/28 09:45:41;;;;;;;4.60;2.45;;;;;;;24.19;37.63;101058.56;6297695;22;20003;-81
2021/05/28 09:48:18;;;;;;;1.75;1.65;;;;;;;23.79;38.22;101062.66;6299815;22;20030;-82
2021/05/28 09:51:08;;;;;;;2.45;2.10;;;;;;;23.37;38.92;101033.91;6294199;22;20022;-83
2021/05/28 09:53:41;;;;;;;9.18;1.90;;;;;;;23.23;39.47;101039.72;6293799;22;20029;-82
2021/05/28 09:56:59;;;;;;;;;;;;;;;;;;;;;
2021/05/28 09:59:21;;;;;;;2.97;2.78;;;;;;;22.98;39.84;101061.81;6320196;22;20022;-81
2021/05/28 10:02:02;;;;;;;3.03;1.90;;;;;;;22.65;40.41;101037.34;6296080;22;20015;-82
2021/05/28 10:04:59;;;;;;;3.85;3.50;;;;;;;22.69;40.64;101059.78;6296861;22;20008;-82
2021/05/28 10:07:48;;;;;;;1.63;1.63;;;;;;;22.53;41.18;101024.13;6323654;22;20018;-82
2021/05/28 10:10:25;;;;;;;2.72;2.58;;;;;;;22.98;40.71;101056.22;6274167;22;20031;-82
2021/05/28 10:12:56;;;;;;;3.15;1.70;;;;;;;23.12;40.70;101044.88;6276487;22;20426;-81
2021/05/28 10:15:24;;;;;;;1.38;1.35;;;;;;;23.40;40.61;101049.97;6295850;22;20003;-82
2021/05/28 10:17:53;;;;;;;3.22;1.75;;;;;;;23.53;40.58;101044.13;6300142;22;20018;-82
2021/05/28 10:20:35;;;;;;;;;;;;;;;;;;;;;
2021/05/28 10:23:05;;;;;;;4.10;3.03;;;;;;;23.57;39.07;101055.44;6327406;22;20006;-82
2021/05/28 10:25:30;;;;;;;2.15;2.05;;;;;;;23.26;39.49;101055.78;6278922;22;20063;-82
2021/05/28 10:28:02;;;;;;;1.50;1.40;;;;;;;22.92;40.25;101018.53;6302472;22;20007;-82
2021/05/28 10:30:36;;;;;;;1.70;1.33;;;;;;;23.10;40.63;101044.34;6327176;22;20002;-83
2021/05/28 10:33:19;;;;;;;1.58;1.48;;;;;;;23.31;40.49;101052.81;6302765;22;20003;-81
2021/05/28 10:35:56;;;;;;;1.52;1.42;;;;;;;23.25;40.38;101045.81;6305844;22;19991;-81
2021/05/28 10:38:30;;;;;;;2.38;2.28;;;;;;;23.20;40.16;101054.34;6297345;22;20014;-79
2021/05/28 10:41:25;;;;;;;1.67;1.58;;;;;;;23.02;39.98;101046.03;6302787;22;20012;-80
2021/05/28 10:44:00;;;;;;;2.17;2.08;;;;;;;22.79;40.31;101060.25;6300257;22;20013;-79
2021/05/28 10:46:29;;;;;;;2.13;2.00;;;;;;;22.79;40.78;101060.25;6324838;22;19999;-81
2021/05/28 10:49:09;;;;;;;1.60;1.50;;;;;;;22.99;40.86;101066.25;6272755;22;20029;-80
2021/05/28 10:51:48;;;;;;;;;;;;;;;;;;;;;
2021/05/28 10:54:17;;;;;;;2.05;1.90;;;;;;;23.81;39.90;101062.31;6321321;22;20073;-80
2021/05/28 10:56:44;;;;;;;1.60;1.60;;;;;;;24.40;39.58;101064.13;6289715;22;20086;-76
2021/05/28 10:59:12;;;;;;;1.58;1.45;;;;;;;24.89;38.68;101057.81;6282718;22;20007;-76
2021/05/28 11:01:52;;;;;;;2.83;2.00;;;;;;;25.39;38.30;101064.22;6322146;22;20015;-75
2021/05/28 11:04:24;;;;;;;2.10;1.90;;;;;;;25.49;36.48;101052.56;6296890;22;20112;-75
2021/05/28 11:06:56;;;;;;;1.40;1.30;;;;;;;25.74;36.81;101060.91;6316947;22;20006;-76
2021/05/28 11:09:39;;;;;;;3.60;1.42;;;;;;;26.12;36.02;101056.81;6288778;22;20003;-73
2021/05/28 11:12:26;;;;;;;1.33;1.00;;;;;;;26.39;35.95;101054.38;6311089;22;20555;-75
2021/05/28 11:15:13;;;;;;;1.85;1.75;;;;;;;26.44;34.87;101062.50;6311778;22;20030;-74
2021/05/28 11:17:55;;;;;;;3.50;1.92;;;;;;;26.53;34.94;101059.53;6283882;22;20068;-75
2021/05/28 11:20:29;;;;;;;1.15;1.15;;;;;;;26.62;34.91;101055.38;6310161;22;19999;-75
2021/05/28 11:23:56;;;;;;;;;;;;;;;;;;;;;
2021/05/28 11:26:27;;;;;;;1.02;0.60;;;;;;;27.32;34.74;101056.72;6283233;22;20062;-74
2021/05/28 11:28:58;;;;;;;2.47;0.90;;;;;;;27.22;34.19;101054.50;6272744;22;20029;-75
2021/05/28 11:31:28;;;;;;;0.50;0.50;;;;;;;27.32;33.92;101059.53;6310058;22;20014;-74
2021/05/28 11:34:01;;;;;;;0.90;0.90;;;;;;;27.43;33.76;101067.44;6310514;22;19995;-76
2021/05/28 11:36:27;;;;;;;2.17;1.30;;;;;;;27.44;33.16;101058.63;6309067;22;20019;-74
2021/05/28 11:38:57;;;;;;;1.30;1.20;;;;;;;27.42;32.89;101054.56;6306000;22;20348;-75
2021/05/28 11:42:04;;;;;;;0.73;0.73;;;;;;;27.88;33.30;101054.75;6309391;22;20003;-75
2021/05/28 11:44:34;;;;;;;0.68;0.43;;;;;;;29.10;33.66;101069.50;6295571;22;20372;-76
2021/05/28 11:47:02;;;;;;;1.13;1.10;;;;;;;30.09;31.82;101069.28;6310987;22;19999;-76
2021/05/28 11:49:28;;;;;;;0.75;0.75;;;;;;;30.74;30.35;101067.19;6281079;22;20469;-74
2021/05/28 11:52:02;;;;;;;3.35;3.00;;;;;;;30.64;28.06;101063.06;6315833;22;19999;-73
2021/05/28 11:54:32;;;;;;;2.08;0.80;;;;;;;30.75;29.12;101062.34;6308676;22;19999;-75
2021/05/28 11:57:15;;;;;;;0.65;0.63;;;;;;;31.48;28.97;101058.88;6290975;22;20003;-76
2021/05/28 11:59:57;;;;;;;2.08;0.40;;;;;;;32.42;28.82;101060.09;6318216;22;20022;-75
2021/05/28 12:02:39;;;;;;;0.93;0.60;;;;;;;33.10;27.24;101056.47;6317172;22;20060;-75
2021/05/28 12:05:27;;;;;;;1.05;0.47;;;;;;;33.29;27.26;101054.47;6315053;22;20010;-76